富山空港

2019/10/19

定点 富山空港 2019/10/19 sat

本日もあまり天候は良く無さそうで、被災地への雨が気になります。

RJNT 182300Z VRB01KT 8000 FEW005 BKN070 BKN100 18/17 Q1014

20191019_rjnt_00ja6768

JA6768 B412EP 富山県消防防災

「とやま」さんがS&Rに出動

RJNT 190000Z 34006KT 300V010 9999 VCSH FEW007 BKN060 BKN100 19/18 Q1014

20191019_rjnt_01ja8971

朝は大型化でB6

20191019_rjnt_02ja8971

ANA313 RJTT-RJNT JA8971 B767-381ER

20191019_rjnt_03ja8971

昔の883を思い出します。

20191019_rjnt_04ja6768

防災さん帰ってきた

20191019_rjnt_05ja6768

JA6768 ↓

20191019_rjnt_06ja6768

後報を確認すると黒部峡谷で滑落事故の模様

20191019_rjnt_07ja8971

20191019_rjnt_08ja8971

このサイズがお似合いで

20191019_rjnt_09ja8971

北陸新幹線が思いのほか早く回復しそうなので、後しばらくかな。

20191019_rjnt_10ja8971

ANA316 RJNT-RJTT JA8971 B767-381ER

20191019_rjnt_11ja10ym

JA10YM A109SP SAK 富山県ドクターへり

雨雲が迫ってきたようで、いち早く閉店です。

RJNT 190100Z 36004KT 320V040 9999 VCSH FEW005 BKN010 BKN070 20/17 Q1015

20191019_rjnt_12b9951

CSN613 ZYTL-RJNT B-9951 A320-232

20191019_rjnt_13ja68an

ANA315 RJTT-RJNT JA68AN B737-881

RJNT 190200Z 04003KT 340V090 8000 VCSH FEW010 BKN013 21/17 Q1014

20191019_rjnt_14ja68an

20191019_rjnt_15ja68an

ANA1181 RJNT-RJCC JA68AN B737-881

20191019_rjnt_16b9951

20191019_rjnt_17b9951

20191019_rjnt_18b9951

CSN614 RJNT-ZYTL B-9951 A320-232

RJNT 190300Z 34006KT 310V010 8000 -SHRA BR FEW010 BKN013 FEW020CB 20/18 Q1014

20191019_rjnt_19b5260

雨雲が厚くなっています

20191019_rjnt_20b5260

20191019_rjnt_21b5260

CSH825 ZSPD-RJNT B-5260 B737-76D

20191019_rjnt_22b5260

雷雲を避けて能登半島の向こうまで逃げてから、やって来ました。

RJNT 190432Z VRB02KT 5000 -SHRA BR FEW003 BKN012 BKN025 19/18 Q1013 RMK 2ST003 5CU012 7CU025 A2992 P/FR

20191019_rjnt_23b5260

CSH826 RJNT-ZSPD B-5260 B737-76D

RJNT 190500Z 33003KT 300V020 8000 -SHRA FEW005 SCT012 BKN020 19/18 Q1013

20191019_rjnt_24ja06fj

なんがーいリボンを引いて

20191019_rjnt_25ja06fj

20191019_rjnt_26ja06fj

FDA8362 RJFG-RJNT JA06FJ ERJ-175STD

RJNT 190600Z 23004KT 5000 -SHRA BR BKN005 BKN025 BKN045 19/18 Q1014

20191019_rjnt_27ja06fj

出発時刻を過ぎても動かない、紫さん

20191019_rjnt_28ja68an

千歳便が先に降りることに

20191019_rjnt_29ja68an

ANA1182 RJCC-RJNT JA68AN B737-881

20191019_rjnt_30ja06fj

バゲージトラブルだった模様

20191019_rjnt_31ja06fj

FDA8365 RJNT-RJFG JA08FJ ERJ-175STD

20191019_rjnt_32ja06fj

明日は稚内からやって来ます。

 

| | コメント (0)

2019/10/17

定点 富山空港 2019/10/17 thu

前回、台風19号接近中の岩瀬浜のその後。

20191017_rjnt_00iwasehama

当日強風により出来た砂州が、こんなに延びていた。

20191017_rjnt_01iwasehama

残留物はそんなに多くはないが、大きな流木が混じっていた。

20191017_rjnt_02iwasehama

陸地が延びて、テトラポットまで届きそう

RJNT 162300Z VRB01KT 9999 FEW010 BKN/// 13/10 Q1026

20191017_rjnt_03ja606a

北陸新幹線不通により東京便は大型化されている。

20191017_rjnt_04ja606a

ANA313 RJTT-RJNT JA606A B767-381ER

RJNT 170000Z VRB02KT 9999 FEW040 BKN/// 16/12 Q1026

20191017_rjnt_05ja829d

JA829D R66 ↑ 秋は測量シーズン

20191017_rjnt_06ja9427

JA9427 AS350B NNK ↓

20191017_rjnt_07ja6512

JA6512 AS350B3 AKF ↑

20191017_rjnt_08ja606a

まだ川の流れは濁っています。

20191017_rjnt_09ja606a

20191017_rjnt_10ja606a

ANA316 RJNT-RJTT JA606A B767-381ER

RJNT 170100Z 04005KT 350V070 9999 FEW040 BKN/// 17/10 Q1025

20191017_rjnt_11ja9427

JA9427 ↑

20191017_rjnt_12info

本日は、フジドの秋チャーターに青組増便

20191017_rjnt_13ja78an

20191017_rjnt_14ja78an

ANA315 RJTT-RJNT JA78AN B737-881

20191017_rjnt_15ja78an

JA01PWがランナップしてました。

RJNT 170200Z 03007KT 360V070 9999 FEW030 SCT190 BKN/// 17/10 Q1025

20191017_rjnt_16b18667

20191017_rjnt_17b18667

CAL170 RCTP-RJNT B-18667 B737-8AL

20191017_rjnt_18b18667

台湾からのお客様は安定しています。

20191017_rjnt_19ja78an

20191017_rjnt_20ja78an

ANA1181 RJNT-RJCC JA78AN B737-881

RJNT 170300Z 02008KT 330V060 9999 FEW030 SCT190 BKN/// 18/10 Q1025

20191017_rjnt_21ja829d

JA829D ↑

20191017_rjnt_22ja11fj

種子島からの飛来

20191017_rjnt_23ja11fj

FDA8362 RJFG-RJNT JA11FJ ERJ-175STD

20191017_rjnt_24ja11fj

折り返しも種子島 H2見に行きたいねぇ。

20191017_rjnt_25ja9427

JA9427 ↓

20191017_rjnt_26ja13aj

JA13AJ C208 ASK ↓

20191017_rjnt_27ja6512

JA6512 ↓

20191017_rjnt_28b18667

続いて出発

20191017_rjnt_29b18667

CAL171 RJNT-RCTP B-18667 B737-8AL

20191017_rjnt_30ja11fj

20191017_rjnt_31ja11fj

FDA8363 RJNT-RJFG JA11FJ ERJ-175STD

20191017_rjnt_32ja11fj

帰りは土曜日

RJNT 170400Z 36008KT 330V040 9999 FEW030 SCT190 BKN/// 19/11 Q1024

20191017_rjnt_33ja01pw

JA01PW AS350B2 ↑ 西へ

20191017_rjnt_34ja829d

JA829D ↑

20191017_rjnt_35ja113a

臨時便

20191017_rjnt_36ja113a

ANA1141 RJTT-RJNT JA113A A321-211

20191017_rjnt_37ja9427

JA9427 ↑

20191017_rjnt_38ja119w

新「とやま」さん離陸

20191017_rjnt_39ja119w

JA119W AW139 富山県消防防災 

RJNT 170500Z 03006KT 350V080 9999 FEW030 SCT060 BKN/// 19/10 Q1024

20191017_rjnt_40ja113a

20191017_rjnt_41ja113a

ANA1142 RJNT-RJTT JA113A A321-211

20191017_rjnt_42ja113a

明日は臨時便が2往復入ります。

20191017_rjnt_43ja6507

JA6507 AS350B3 AKF ↓

20191017_rjnt_44ja119w

一時間のフライトで帰還

20191017_rjnt_45ja119w

20191017_rjnt_46ja119w

JA119W

RJNT 170600Z 01008KT 320V040 9999 FEW030 SCT070 BKN/// 19/11 Q1024

20191017_rjnt_47ja119w

防災航空隊員を乗せて訓練を始めているようです。

20191017_rjnt_48ja119w

「とやま」さんの顔がチラ

20191017_rjnt_49ja119w

こんなところにステップが

20191017_rjnt_50ja119w

ピストルノズル給油なのね

20191017_rjnt_51ja78an

1182は OWARA

20191017_rjnt_52ja78an

ANA1182 RJCC-RJNT JA78AN B737-881

20191017_rjnt_53ja78an

今日は、チョット長居してしまいました。

 

| | コメント (0)

2019/10/13

定点 富山空港 2019/10/13 sun

台風19号は、昨晩の内に当地を通過して、大過なくすんだようでした。しかし、山の向こうの長野では、河川氾濫で甚大な被害が発生している模様。ほんの少しの差で、被災が左右される理不尽さも感じますが、立山信仰は益々深まるばかりです。

RJNT 130200Z 01013G23KT 9000 VCSH FEW010 BKN025 BKN040 18/13 Q1018

20191013_rjnt_00tyo

本日の国内線営業は、ANA320から。昨日避難してきていたフラワーさんは、10時頃に羽田に戻られました。

20191013_rjnt_01b18658

外航は、変わらずやってきます。

20191013_rjnt_02b18658

CAL170 RCTP-RJNT B-18658 B737-8SH

20191013_rjnt_03b18658

団体バスが多かったけど、無事でなによりです。

RJNT 130200Z 01013G23KT 9000 VCSH FEW010 BKN025 BKN040 18/13 Q1018

20191013_rjnt_04b18658

20191013_rjnt_05b18658

CAL171 RJNT-RCTP B-18658 B737-8SH

20191013_rjnt_06ja8600

しばらく待ってみると、IFRで怪しいのがやって来た

20191013_rjnt_07ja8600

JA8600 RJFS-RJNT Gulfstream Aerospace 695 Jetprop 980

20191013_rjnt_08ja8600

短い距離で180

20191013_rjnt_09ja8600

他にはない独特のフォルム

20191013_rjnt_10ja8600

今日は佐賀空港から直接飛来 A-PADジャパンの運航

20191013_rjnt_11ja8600

駐機するのに逆進しました。

RJNT 130200Z 01013G23KT 9000 VCSH FEW010 BKN025 BKN040 18/13 Q1018

20191013_rjnt_12ja01pw

しばらくして2機編隊のヘリコプター

20191013_rjnt_13ja01pw

20191013_rjnt_14ja01pw

JA01PW AS350B2

20191013_rjnt_15ja9727

JA9727 AS350B

20191013_rjnt_16ja9727

どうもこの3機は、一団の模様

20191013_rjnt_17ja9727

そろって給油の後は、物資の取り卸し

20191013_rjnt_18ja01pw

よく観察すると、救難用ボートの用品が・・

20191013_rjnt_19ja123t

20191013_rjnt_20ja123t

20191013_rjnt_21ja123t

JA123T PA-46-350P

20191013_rjnt_22ja123t

エアロコマンダーのお隣へ

20191013_rjnt_23ja02cp

北東から飛来 長野の現場からか

20191013_rjnt_24ja02cp

JA02CP EC135P2 CSP

20191013_rjnt_25ja02cp

賑やかなスポットです

RJNT 130600Z 02011G23KT 340V050 9000 VCSH FEW015 BKN030 BKN040 18/12 Q1019

20191013_rjnt_26ja6502

JA6502 AS350B3 AKF

20191013_rjnt_27ja112a

青組営業便が

20191013_rjnt_28ja112a

20191013_rjnt_29ja112a

ANA1182 RJCC-RJNT JA112A A321-211

20191013_rjnt_30ja112a

今般の台風被害でJR東日本の長野新幹線車両センターが水没した。今後の青組の対応に注目したい。

20191013_rjnt_31ja01pw

どうも資材はここから陸送で、人員のみ乗り込み出発

特定非営利活動法人ピースウィンズ・ジャパンとCivic Force のチームの

【台風19号】緊急支援チーム、被災地へ

令和元年台風19号でピースウィンズ・ジャパン医療・レスキューチームによる緊急支援活動を開始

20191013_rjnt_32ja01pw

JA01PW

20191013_rjnt_33ja9727

JA9727

20191013_rjnt_34ja9727

北東へ向かったので、被災地に向かった模様

RJNT 130700Z 02008KT 350V060 9999 FEW015 BKN030 BKN040 19/12 Q1019

20191013_rjnt_35ja02cp

JA02CP 給油と休憩を終えて、こちらも出発。名古屋へ帰るかと思いきや、北東方面へ。

20191013_rjnt_36ja112a

当然、満席での出発です。

20191013_rjnt_37ja112a

ANA320 RJNT-RJTT JA112A A321-211

全日空では、この後の319/322はB6にサイズアップした上、その後に福岡から回航したB6を1310便として運航した。

 

| | コメント (0)

2019/10/12

来襲 富山空港 2019/10/12 sat

台風19号の来襲により、この週末は全国的に大荒れとなる模様。この週末、いろいろなイベントの為お休みを調整した小生も、ポッカリ台風の目状態に。

RJNT 120000Z 04006KT 010V080 5000 -SHRA BR FEW002 BKN008 BKN012 21/20 Q1004

20191012_rjnt_00ja85an

関東直撃なので、昨日から各社航空機を避難させてます。

20191012_rjnt_02ja85an

本日、早くにANA313で避難してきた JA85AN

20191012_rjnt_03ja51an

昨日の最終で本日312で出発予定だった JA51AN

20191012_rjnt_04rw02

風は北から強風ですが、雨はそれほどでも

RJNT 120100Z 02018G30KT 350V050 3500 SHRA BR FEW002 SCT004 BKN007 22/21 Q1003

20191012_rjnt_05dep

本日の出発便は、新千歳行きのANA1181のみ

20191012_rjnt_06ja85an

ターミナルは強風で、写真を撮ってる場合じゃない

RJNT 120200Z 01021G33KT 3500 -SHRA BR FEW002 BKN005 BKN010 21/20 Q1002

20191012_rjnt_07ja51an

JA51ANはANA1181として新千歳へ

20191012_rjnt_08ja51an

20191012_rjnt_09ja51an

20191012_rjnt_10ja51an

ANA1181 RJNT-RJCC JA51AN B737-881

20191012_rjnt_11ja51an

はたして折り返しは、帰ってこれるのでしょうか

20191012_rjnt_12ja51an

新千歳でエレファント・ウォークを見てみたい

空港はこの一便のみで、帰路で台風の状況を

RJNT 120300Z 01025G40KT 4500 -SHRA BR FEW002 BKN007 BKN010 21/20 Q1000

20191012_zjs_13iwase

岩瀬漁港 波は高いが、うねりは大きくないような

20191012_zjs_14jintsu

富山市消防局の消防艇「神通」さんも、波のあたらない処に避難

20191012_zjs_15iwase

波より砂嵐が酷い

20191012_zjs_16mizuhashi

自然の力は凄いよね

20191012_zjs_17mizuhashi

灯台を飲み込む波頭

20191012_zjs_18mizuhashi

強風により、風害警戒に消防車が出動していました。

午後から空は静かだ

| | コメント (0)

2019/10/06

定点 富山空港 2019/10/5 sat

小矢部の消防フェアから河原転戦。新「とやま」さんは、お出かけ中。

RJNT 050100Z VRB03KT 9999 FEW020 SCT040 BKN050 21/17 Q1013

20191005_rjnt_00b6652

CSN613 ZYTL-RJNT B-6652 A320-232

チョット欲張ったら、並走しながらタッチダウンだちゃ

20191005_rjnt_01ja68an

ANA315 RJTT-RJNT JA68AN B737-881

RJNT 050200Z 15003KT 060V210 9999 FEW020 SCT/// 23/16 Q1013

20191005_rjnt_02ja68an

20191005_rjnt_03ja68an

20191005_rjnt_04ja68an

ANA1181 RJNT-RJCC JA68AN B737-881

20191005_rjnt_05ja119w

富山でP/Gを繰り返してから能登までお出かけしてました。

20191005_rjnt_06ja119w

JA119W AW139 新富山県消防防災

20191005_rjnt_07b6652

20191005_rjnt_08b6652

CSN614 RJNT-ZYTL B-6652 A320-232

RJNT 050300Z 23004KT 170V290 9999 FEW030 23/15 Q1012

20191005_rjnt_09ja119w

格納されないので、午後も飛ぶのかな

20191005_rjnt_10ja10ym

JA10YM A109SP SAK 富山県ドクターヘリ

空港近郊で事案発生。道が混んでいて、かろうじて離陸を見るのみ。

RJNT 050400Z 24004KT 190V300 9999 FEW030 SCT045 BKN/// 24/15 Q1012

20191005_rjnt_11b5260

秋の河原は、先輩達がいっばい

20191005_rjnt_12b5260

Cool

20191005_rjnt_13b5260

CSH825 ZSPD-RJNT B-5260 B737-76D

20191005_rjnt_14ja119w

JA119W 午後のフライト、思いがけず南へ 山か

20191005_rjnt_15b5260

20191005_rjnt_16b5260

20191005_rjnt_17b5260

CSH826 RJNT-ZSPD B-5260 B737-76D

RJNT 050500Z 05005KT 010V100 9999 FEW025 BKN045 BKN/// 24/16 Q1012

20191005_rjnt_18ja119w

山かと思ったら、お城まで見て帰ってきました。

20191005_rjnt_19ja119w

JA119W まだ飛行訓練中

20191005_rjnt_20ja119w

機能美

20191005_rjnt_21fbc

空港消防も車庫前で訓練中

20191005_rjnt_22ja04tv

午後から県内を飛び回っていた黒いヤツがようやく降りてきました。

RJNT 050600Z 04005KT 360V080 9999 FEW020 BKN050 23/16 Q1012

20191005_rjnt_23ja68an

20191005_rjnt_24ja68an

20191005_rjnt_25ja68an

ANA1182 RJCC-RJNT JA68AN B737-881

20191005_rjnt_26ja04tv

JA04TV B430 NNK 中京テレビ

給油と小休憩の後、名古屋に帰ったのかな

RJNT 050700Z 36005KT 9999 VCSH FEW020 SCT030 BKN040 23/16 Q1012

20191005_rjnt_27ja9690

JA9690 AS332L AKF

20191005_rjnt_28ja68an

ANA320 RJNT-RJTT JA68AN B737-881

RJNT 050800Z 36005KT 9999 -SHRA FEW015 SCT025 BKN035 22/16 Q1013

飛来情報が入っていたので、まだ粘ります。

20191005_rjnt_29vpczz

厚い曇天に日の入りも間近

20191005_rjnt_30vpczz

南の国のロックスター?

20191005_rjnt_31vpczz

RKS51 NFFN-RJNT VP-CZZ G650

20191005_rjnt_32vpczz

巧みにリバーサーを使ってスポットイン

###whitewing681さんの動画###

#####

20191005_rjnt_33vpczz

RKS51 RJNT-RJGG VP-CZZ G650

小休止の後、中部へ回航。すっかり闇夜になってしまいました。

 

| | コメント (0)

2019/10/04

定点 富山空港 2019/10/4 fri

台風が温帯低気圧になって日本海を進んでいます。当初、いたち狩りに行こうと思っていましたが、この雨ですから、河原監視に変わりました。

RJNT 032300Z 24010KT 9999 -SHRA FEW010 SCT040 BKN050 24/17 Q1003

20191004_rjnt_00ja134a

ANA313 RJTT-RJNT JA134A A321-272N

RJNT 040000Z 26008KT 9999 -SHRA FEW010 SCT040 BKN050 22/18 Q1004

20191004_rjnt_01ja134a

20191004_rjnt_02ja134a

20191004_rjnt_03ja134a

ANA316 RJNT-RJTT JA134A A321-272N

RJNT 040131Z 23016G27KT 200V260 4000 SHRA BR FEW010 SCT020 BKN030 21/19 Q1005 RMK 1CU010 3CU020 6CU030 A2968

20191004_rjnt_04ja69an

ANA315 RJTT-RJNT JA69AN B737-881

RJNT 040200Z 22011KT 190V250 3500 SHRA BR FEW005 SCT020 BKN030 20/19 Q1005

20191004_rjnt_05b18661

20191004_rjnt_06b18661

CAL170 RCTP-RJNT B-18661 B737-8AL

20191004_rjnt_07ja69an

20191004_rjnt_08ja69an

20191004_rjnt_09ja69an

ANA1181 RJNT-RJCC JA69AN B737-881

RJNT 040300Z 22016KT 4000 -SHRA BR FEW005 SCT020 BKN030 20/19 Q1005

20191004_rjnt_10ja9690

JA9690 AS332L AKF

さすがに今日は、お休みです。

RJNT 040343Z 22015G28KT 5000 -SHRA BR FEW005 SCT010 BKN020 21/19 Q1005 RMK 1CU005 3CU010 5CU020 A2969

20191004_rjnt_11b18661

20191004_rjnt_12b18661

20191004_rjnt_13b18661

20191004_rjnt_14b18661

CAL171 RJNT-RCTP B-18661 B737-8AL

20191004_rjnt_15b18661

すぐ雲の中に消えて行きました。

 

| | コメント (0)

2019/09/28

定点 富山空港 2019/9/28 sat

本日は、富山市総合防災訓練が行われるので、いつもより早く河原へ

RJNT 272200Z 03004KT 9999 FEW050 BKN070 BKN080 22/20 Q1021

20190928_rjnt_00ja55an

20190928_rjnt_01ja55an

ANA312 RJNT-RJTT JA55AN B737-881

ここで防災訓練に転戦

令和元年度富山市総合防災訓練 富山市 2019/9/28 sat

RJNT 280100Z VRB02KT 9999 FEW040 SCT080 BKN090 25/21 Q1021

20190928_rjnt_10ja6768

訓練が終わって空港に戻ってくると、只今入庫中

20190928_rjnt_11ja9690

JA9690 AS332L AKF

20190928_rjnt_12ja9690

現場でお仕事の皆さん、お疲れ様でした。

20190928_rjnt_13b6908

20190928_rjnt_14b6908

CSN613 ZYTL-RJNT B-6908 A320-232

20190928_rjnt_15ja63an

20190928_rjnt_16ja63an

ANA315 RJTT-RJNT JA63AN B737-881

RJNT 280200Z 28003KT 210V330 9999 FEW040 SCT090 BKN110 25/21 Q1020

20190928_rjnt_17ja9690

きったないって、言っちゃダメよ! 一生懸命掃除してるんだから。

20190928_rjnt_18ja139t

防災訓練中に飛び立っていった警察さんが帰ってきた

20190928_rjnt_19ja139t

20190928_rjnt_20ja139t

JA139T AW139 富山蓮警察

20190928_rjnt_21ja139t

今日のお鼻とお尻

20190928_rjnt_22ja63an

20190928_rjnt_23ja63an

ANA1181 RJNT-RJCC JA63AN B737-881

20190928_rjnt_24b6908

20190928_rjnt_25b6908

CSN614 RJNT-ZYTL B-6908 A320-232

RJNT 280300Z VRB02KT 9999 FEW030 BKN080 BKN110 26/21 Q1020

この間にドクヘリミッションがあったのですが、チョット間に合わず。

20190928_rjnt_26b5260

20190928_rjnt_27b5260

CSH825 ZSPD-RJNT B-5260 B737-76D

これにて河原を離れて、チョット他の河原へ

RJNT 280400Z 25003KT 210V290 9999 FEW030 BKN080 BKN100 27/20 Q1019

20190928_yfushiki_30mcs681

小矢部川河口にやってきました。

20190928_yfushiki_31mcs681

海保ビル前に掃海艇MCS681「すがしま」

20190928_yfushiki_32mcs681

明日の富山県総合防災訓練に参加の予定

20190928_zshinminato_33pl04

「のりくら」さんは出港中 「やひこ」さんは停泊してました。

| | コメント (0)

2019/09/25

新顔 富山空港 2019/9/25 wed

深夜にH-ⅡBF8のLIVEを見ていて、寝不足です。でも、朝にはしっかり眼がさめて日の出を拝みました。

RJNT 242110Z 16002KT 9999 MIFG FEW001 SCT/// 16/16 Q1020 RMK 1ST001 A3013

20190925_rjnt_00sr

今日も良いことがありますように。旭日は日本人の魂。

RJNT 242300Z VRB02KT 9999 FEW003 SCT/// 19/17 Q1021

20190925_rjnt_01ja139t

河原に早めに出かけたら、おや予定外の出動。

20190925_rjnt_02ja139t

こんな天候が良い日にとは・・

20190925_rjnt_03ja139t

JA139T AW139 富山県警察

20190925_rjnt_04ja139t

お山にS&R

20190925_rjnt_05ja68an

20190925_rjnt_06ja68an

ANA313 RJTT-RJNT JA68AN B737-881

20190925_rjnt_07ja139t

思ったより早く帰ってきました。

RJNT 250000Z VRB02KT 9999 FEW010 SCT/// 22/18 Q1022

20190925_rjnt_08ja139t

負傷者搬送だった模様。んんん。

20190925_rjnt_09ja139t

救急車が呼ばれ、横付けで搬送されます。

20190925_rjnt_10ja68an

20190925_rjnt_11ja68an

ANA316 RJNT-RJTT JA68AN B737-881

RJNT 250100Z VRB02KT 9999 FEW025 22/16 Q1022

20190925_rjnt_12ja8899

おっと、トンビの襲撃を華麗にかわして

20190925_rjnt_13ja8899

JA8899 C208B NNK

20190925_rjnt_14ja53an

ANA315 RJTT-RJNT JA53AN B737-881

20190925_rjnt_15b9958

CSN613 ZYTL-RJNT B-9958 A320-232

20190925_rjnt_16ja6049

JA6049 AS350B2 AHS

RJNT 250200Z 36007KT 320V040 9999 FEW030 24/13 Q1021

20190925_rjnt_17ja01hr

JA01HR AS365N3 北海道防災航空隊 神戸からやって来た

20190925_rjnt_18ja119w

朝から待ちに待った機影が見えてきました。 11:30

20190925_rjnt_19ja119w

赤に機体に濃緑のライン

20190925_rjnt_20ja119w

Lonardo AW139

20190925_rjnt_21ja119w

フォトセッションが終って・・

20190925_rjnt_22ja119w

いよいよ着陸です。

20190925_rjnt_23ja119w

左主輪から・・

20190925_rjnt_24ja119w

エンジンカットされ乗員が降りてきました。

20190925_rjnt_25ja119w

登録記号は、JA119W

20190925_rjnt_26ja119w

愛称は、「とやま」

20190925_rjnt_27ja119w

富山県消防防災航空隊員も興味深々

20190925_rjnt_28ja119w

それは、新しい富山県消防防災へり「とやま」さん。富山初お目見えです。

20190925_rjnt_29ja139t

お隣の県警航空隊さんが、粋な計らい

20190925_rjnt_30ja119w

2機並べてくださいました。

20190925_rjnt_31ja119w

ファン感謝デーだそうです。

20190925_rjnt_32ja119w

アグスタウエストランドとレオナルドのAW139

20190925_rjnt_33ja119w

搭載品の取り卸しと見学に人だかり

RJNT 250300Z 01007KT 310V090 9999 FEW030 24/15 Q1021

20190925_rjnt_34ja119w

この時間の定期便は、おいておきます。

20190925_rjnt_35ja119w

初格納が始まりました。

20190925_rjnt_36ja119w

後ろにイロイロ付いてます。

20190925_rjnt_37ja119w

格納庫扉高がギリギリなので慎重に

20190925_rjnt_38ja139t

ファン感謝デー終了 警察さんありがとうございました。

20190925_rjnt_39ja139t

新「とやま」さんが実任務に就くのは来春

20190925_rjnt_40ja119w

新旧で並んで撮ることができるでしょうか? 今後も注目です。

20190925_rjnt_41ja8899

JA8899 C208B NNK

20190925_rjnt_42ja01hr

JA01HR AS365N3 北海道防災航空隊

20190925_rjnt_43ja01hr

秋田を経由して丘珠に夕方到着されたようです。

RJNT 250400Z 36010KT 9999 FEW030 25/17 Q1021

20190925_rjnt_44jg

岐路、陸自のハンターさんがクロカン

RJNT 250700Z 02007KT 350V080 9999 FEW030 BKN/// 23/15 Q1021

20190925_rjnt_45ja6819

JA6819 B412EP 国土交通省北陸地方整備局

夕方、自宅上空を通過して富山空港着陸。今日はお泊りの模様。

ヘリコプター三昧の一日でした。

20190925_rjnt_99ja119w

RJTF 250100Z 01006KT 330V090 9999 FEW020 SCT080 27/15 Q1019
RJAF 250200Z 33009KT 9999 FEW040 23/09 Q1022
RJNT 250300Z 01007KT 310V090 9999 FEW030 24/15 Q1021

JA119W飛行航跡

## whitewing681さんの動画 ##

#####

 

 

| | コメント (0)

2019/09/24

定点 富山空港 2019/9/24 tue

台風は、強い風と、熱い空気をもたらしましたが、特に被害もありませんでした。翻って、今日はいつ雨が降ってもおかしくない空模様。

RJNT 232300Z VRB02KT 9999 -SHRA FEW005 SCT010 BKN040 21/19 Q1014

20190924_rjnt_00ja52an

ANA313 RJTT-RJNT JA52AN B737-881

RJNT 240000Z VRB02KT 9999 -SHRA FEW005 SCT010 BKN040 21/19 Q1015

20190924_rjnt_01ja52an

ANA316 RJNT-RJTT JA52AN B737-881

RJNT 240100Z VRB02KT 9999 FEW010 SCT020 BKN045 23/19 Q1014

20190924_rjnt_02ja60an

20190924_rjnt_03ja60an

20190924_rjnt_04ja60an

ANA315 RJTT-RJNT JA60AN B737-881

RJNT 240200Z 34003KT 260V020 9999 FEW015 BKN025 BKN060 24/17 Q1014

20190924_rjnt_05ja60an

20190924_rjnt_06ja60an

ANA1181 RJNT-RJCC JA60AN B737-881

20190924_rjnt_07ja10ym

JA10YM A109SP SAK 富山県ドクターヘリ

こんな天気でも出動してます。富山大学病院から離陸。

RJNT 240300Z 01003KT 270V050 9999 VCSH FEW020 BKN025 BKN060 24/18 Q1014

20190924_rjnt_08b6261

20190924_rjnt_09b6261

20190924_rjnt_10b6261

CSH825 ZSPD-RJNT B-5261 B737-76D

RJNT 240400Z 35005KT 310V050 9999 VCSH FEW020 BKN035 BKN060 24/19 Q1013

20190924_rjnt_11b6261

雨に降られました。

20190924_rjnt_12b6261

20190924_rjnt_13b6261

CSH826 RJNT-ZSPD B-5261 B737-76D

20190924_rjnt_14ja6512

JA6512 AS350B3 AKF

雨雲に追いかけられて帰ってきました。

明日は、秋晴れのようですので、イイことあるとイイですね。

| | コメント (0)

2019/09/20

定点 富山空港 2019/9/20 fri

急に秋めいて、朝晩涼しくなってきましたね。夏鳥の渡りの季節です。

RJNT 192300Z 20003KT 9999 FEW040 BKN/// 18/12 Q1018

20190920_rjnt_00ja114a

今朝は大きいのが来るかと思ったら、チョット大きいやつ

20190920_rjnt_01ja114a

ANA313 RJTT-RJNT JA114A A321-211

RJNT 200000Z VRB03KT 9999 FEW040 BKN/// 21/12 Q1018

20190920_rjnt_01ja9878

JA9878 AS350B THK ↓

20190920_rjnt_02ja114a

20190920_rjnt_03ja114a

ANA316 RJNT-RJTT JA114A A321-211

20190920_rjnt_04ja114a

軽々とエアボーン

20190920_rjnt_05ja01ra

JA01RA R44 TKB ↓

RJNT 200100Z VRB02KT 9999 FEW040 BKN/// 21/11 Q1018

20190920_rjnt_06ja6768

高岡方面に行っていた防災さん帰ってきた。

20190920_rjnt_07ja6768

JA6768 B412EP 富山県消防防災

20190920_rjnt_08ja139t

防災さんが降りてすぐ、県警さん出場。

20190920_rjnt_09ja139t

防災さんは、一生懸命撤収作業中

20190920_rjnt_10ja139t

早業で格納庫へ

20190920_rjnt_11ja139t

県警さんにゾロゾロ黒服の面々

20190920_rjnt_12ja139t

エンジンスタート

20190920_rjnt_13ja139t

AIR POLICE ONE ? 出撃

20190920_rjnt_14ja139t

ど偉いさんの視察

20190920_rjnt_15ja6768

県警さんが出発して、再度引き出され給油

20190920_rjnt_16ja73an

20190920_rjnt_17ja73an

ANA315 RJTT-RJNT JA73AN B737-881

20190920_rjnt_18ja73an

背風が強くなっています。

20190920_rjnt_19ja01ra

JA01RA ↑

RJNT 200200Z 01008KT 9999 FEW040 SCT190 BKN/// 23/11 Q1018

20190920_rjnt_20ja9427

JA9427 AS350B NNK ↑

20190920_rjnt_21ja9878

JA9878 ↓ 今日は測量へりフェス

20190920_rjnt_22ja139t

「つるぎ」さん お山に一行を降ろして帰ってきました。

20190920_rjnt_23ja139t

向こうをダイナさんがライトブレイク

20190920_rjnt_24b18662

20190920_rjnt_25b18662

CAL170 RCTP-RJNT B-18662 B737-8AL

20190920_rjnt_26b18662

お見合いパターンの予定

20190920_rjnt_27ja73an

20190920_rjnt_28ja73an

ANA1181 RJNT-RJCC JA73AN B737-881

20190920_rjnt_29ja73an

お見合いは、対岸からでないと難しい

20190920_rjnt_30ja73an

青い塔に・・

20190920_rjnt_31ja139t

「つるぎ」さん昼食。

RJNT 200300Z 03006KT 360V100 9999 FEW040 SCT190 BKN/// 22/12 Q1017

20190920_rjnt_32ja139t

お迎えに出発です。

20190920_rjnt_33ja139t

JA139T AW139 富山県警察

20190920_rjnt_34ja139t

30分で山から下りてきました。

20190920_rjnt_35ja139t

再び AIR POLICE ONE

20190920_rjnt_36ja139t

山岳警備隊激励!

RJNT 200400Z 36006KT 330V040 9999 FEW030 SCT190 BKN/// 23/12 Q1017

20190920_rjnt_37ja8899

JA8899 C208B NNK ↓

20190920_rjnt_38ja139t

ど偉いさんを囲んで、なごやかに記念撮影。二日間の視察でしたね。

20190920_rjnt_39b18662

20190920_rjnt_40b18662

20190920_rjnt_41b18662

CAL171 RJNT-RCTP B-18662 B737-8AL

20190920_rjnt_42b18662

台湾便がデイリーにならないかなぁ・・

ところで、ど偉いさんとは・・・ 警察庁長官殿

 

| | コメント (0)

より以前の記事一覧

その他のカテゴリー

BI Boading record aircraft Boading record ship FlightTracking lighthouse NAVAIDS RJNT LOG SKY MASSAGE US NAVY USMC うみ おか そら てつ アクシデント エアロック チーム室屋 三沢飛行場 上五島空港 下地島空港 下総飛行場 与那国空港 中標津空港 中部国際空港 久米島空港 五島福江空港 仙台空港 伊江島空港 但馬空港 佐賀空港 入間飛行場 八尾空港 八戸飛行場 出雲空港 函館空港 利尻空港 北九州空港 十勝飛行場 千歳飛行場 博物館 厚木飛行場 名古屋飛行場 喜界空港 嘉手納飛行場 場外 壱岐空港 大分空港 大湊飛行場 大阪国際空港 大館能代空港 天草空港 奄美空港 奥尻空港 宇部山口空港 宇都宮飛行場 宮古空港 宮崎空港 富山空港 小松島飛行場 小松飛行場 屋久島空港 山形空港 岐阜飛行場 岡山空港 岩国飛行場 帯広空港 広島空港 庄内空港 徳之島空港 徳島飛行場 成田国際空港 新潟空港 新田原飛行場 旭川空港 旭川飛行場 明野飛行場 普天間飛行場 木更津飛行場 札幌飛行場 東京国際空港 松山空港 松島飛行場 松本空港 横田飛行場 沖永良部空港 波照間空港 浜松飛行場 海上保安庁 海上自衛隊 海外 熊本空港 百里飛行場 相馬原飛行場 石垣空港 石見空港 礼文空港 神戸空港 福井空港 福岡空港 福島空港 秋田空港 種子島空港 空撮 立川飛行場 築城飛行場 美保飛行場 能登空港 舞鶴飛行場 航空自衛隊 芦屋飛行場 花巻空港 調布飛行場 警務消防 那覇空港 釧路空港 長崎空港 関西国際空港 陸上自衛隊 隠岐空港 霞ヶ浦飛行場 霞目飛行場 青森空港 静岡空港 静浜飛行場 飛行場跡 飛行船 鹿児島空港 鹿屋飛行場